createdAt,value
2023-06-29T00:01:12.209Z,72.64
2023-06-29T00:03:43.567Z,72.20
2023-06-29T00:06:11.207Z,72.39
2023-06-29T00:08:38.685Z,72.93
2023-06-29T00:11:07.016Z,72.66
2023-06-29T00:13:34.454Z,72.70
2023-06-29T00:16:02.884Z,72.97
2023-06-29T00:18:31.028Z,72.92
2023-06-29T00:20:58.911Z,72.76
2023-06-29T00:23:29.339Z,72.49
2023-06-29T00:25:58.089Z,72.52
2023-06-29T00:28:25.971Z,72.56
2023-06-29T00:30:53.472Z,72.66
2023-06-29T00:33:21.065Z,72.22
2023-06-29T00:35:48.654Z,72.27
2023-06-29T00:38:16.417Z,72.48
2023-06-29T00:40:44.242Z,72.12
2023-06-29T00:43:12.538Z,72.44
2023-06-29T00:45:40.056Z,72.05
2023-06-29T00:48:09.810Z,71.79
2023-06-29T00:50:38.101Z,72.38
2023-06-29T00:53:05.606Z,72.55
2023-06-29T00:55:33.618Z,72.31
2023-06-29T00:58:01.212Z,72.39
2023-06-29T01:00:28.736Z,72.60
2023-06-29T01:05:47.072Z,72.50
2023-06-29T01:08:24.624Z,72.60
2023-06-29T01:10:52.871Z,72.66
2023-06-29T01:13:21.324Z,72.55
2023-06-29T01:15:49.647Z,72.47
2023-06-29T01:18:18.489Z,72.69
2023-06-29T01:20:50.983Z,72.07
2023-06-29T01:23:27.121Z,72.85
2023-06-29T01:25:58.250Z,72.92
2023-06-29T01:28:26.334Z,73.10
2023-06-29T01:30:53.916Z,73.12
2023-06-29T01:33:24.447Z,72.65
2023-06-29T01:35:58.918Z,73.03
2023-06-29T01:38:32.292Z,72.73
2023-06-29T01:41:02.692Z,72.82
2023-06-29T01:43:31.372Z,72.58
2023-06-29T01:45:59.419Z,72.59
2023-06-29T01:48:28.439Z,72.49
2023-06-29T01:50:56.587Z,72.80
2023-06-29T01:53:24.153Z,72.44
2023-06-29T01:55:51.848Z,72.79
2023-06-29T01:58:19.367Z,72.89
2023-06-29T02:00:47.964Z,72.59
2023-06-29T02:03:16.054Z,71.96
2023-06-29T02:05:44.150Z,72.39
2023-06-29T02:08:12.645Z,72.52
2023-06-29T02:10:41.608Z,72.53
2023-06-29T02:13:09.445Z,72.34
2023-06-29T02:15:37.186Z,71.95
2023-06-29T02:18:06.171Z,72.12
2023-06-29T02:20:33.553Z,71.98
2023-06-29T02:23:01.233Z,72.62
2023-06-29T02:25:29.287Z,72.97
2023-06-29T02:27:56.893Z,72.47
2023-06-29T02:30:24.697Z,72.47
2023-06-29T02:32:52.716Z,72.77
2023-06-29T02:35:20.033Z,72.55
2023-06-29T02:37:47.606Z,72.46
2023-06-29T02:40:15.251Z,73.13
2023-06-29T02:42:42.804Z,73.29
2023-06-29T02:45:10.683Z,73.39
2023-06-29T02:47:38.437Z,73.31
2023-06-29T02:50:06.495Z,73.34
2023-06-29T02:52:33.892Z,73.08
2023-06-29T02:55:01.439Z,72.98
2023-06-29T02:57:28.743Z,72.92
2023-06-29T02:59:56.093Z,72.46
2023-06-29T03:02:23.798Z,72.78
2023-06-29T03:04:51.170Z,72.55
2023-06-29T03:07:19.286Z,72.84
2023-06-29T03:09:46.984Z,72.77
2023-06-29T03:12:14.349Z,72.49
2023-06-29T03:14:41.654Z,72.42
2023-06-29T03:17:10.126Z,72.37
2023-06-29T03:19:37.691Z,72.79
2023-06-29T03:22:06.137Z,72.76
2023-06-29T03:24:33.833Z,72.19
2023-06-29T03:27:01.143Z,72.66
2023-06-29T03:29:29.117Z,72.68
2023-06-29T03:31:56.717Z,72.71
2023-06-29T03:34:24.100Z,72.65
2023-06-29T03:36:51.607Z,72.74
2023-06-29T03:39:20.956Z,73.12
2023-06-29T03:41:48.317Z,72.77
2023-06-29T03:44:15.878Z,72.53
2023-06-29T03:46:43.812Z,72.33
2023-06-29T03:49:11.325Z,72.11
2023-06-29T03:51:38.762Z,71.89
2023-06-29T03:54:06.409Z,72.09
2023-06-29T03:56:34.568Z,72.79
2023-06-29T03:59:02.471Z,72.55
2023-06-29T04:01:30.923Z,72.45
2023-06-29T04:03:58.323Z,72.48
2023-06-29T04:06:25.870Z,72.36
2023-06-29T04:08:53.354Z,72.53
2023-06-29T04:11:21.282Z,72.44
2023-06-29T04:13:48.848Z,72.57
2023-06-29T04:16:16.455Z,72.62
2023-06-29T04:18:43.902Z,72.56
2023-06-29T04:21:11.509Z,72.69
2023-06-29T04:23:39.116Z,72.28
2023-06-29T04:27:06.525Z,72.21
2023-06-29T04:30:17.393Z,72.64
2023-06-29T04:33:17.231Z,72.32
2023-06-29T04:35:51.911Z,72.55
2023-06-29T04:38:40.191Z,72.18
2023-06-29T04:41:49.912Z,72.10
2023-06-29T04:45:17.079Z,72.05
2023-06-29T04:48:47.245Z,72.15
2023-06-29T04:51:51.478Z,72.28
2023-06-29T04:54:40.207Z,71.80
2023-06-29T04:57:39.664Z,72.65
2023-06-29T05:31:32.965Z,72.09
2023-06-29T05:34:06.114Z,71.88
2023-06-29T05:36:34.018Z,71.78
2023-06-29T05:39:01.504Z,72.07
2023-06-29T05:41:40.860Z,71.90
2023-06-29T05:44:13.611Z,71.91
2023-06-29T05:47:20.868Z,71.80
2023-06-29T05:50:17.847Z,71.53
2023-06-29T05:53:09.352Z,71.68
2023-06-29T05:55:57.456Z,72.02
2023-06-29T05:59:07.969Z,71.70
2023-06-29T06:02:00.618Z,71.41
2023-06-29T06:04:52.733Z,71.75
2023-06-29T06:08:28.984Z,71.89
2023-06-29T06:11:16.462Z,71.57
2023-06-29T06:13:46.149Z,71.95
2023-06-29T06:16:14.244Z,71.78
2023-06-29T06:19:04.703Z,71.43
2023-06-29T06:21:55.791Z,71.15
2023-06-29T06:24:28.305Z,71.19
2023-06-29T06:27:16.131Z,71.22
2023-06-29T06:29:43.896Z,70.61
2023-06-29T06:32:11.576Z,70.70
2023-06-29T06:34:40.335Z,70.71
2023-06-29T06:37:08.557Z,70.67
2023-06-29T06:39:36.051Z,70.77
2023-06-29T06:42:03.537Z,70.64
2023-06-29T06:44:32.016Z,70.08
2023-06-29T06:46:59.710Z,70.00
2023-06-29T06:49:27.601Z,69.89
2023-06-29T06:51:55.161Z,69.71
2023-06-29T06:54:22.891Z,69.84
2023-06-29T06:56:50.649Z,69.94
2023-06-29T06:59:18.759Z,70.08
2023-06-29T07:01:46.365Z,70.12
2023-06-29T07:04:14.144Z,70.28
2023-06-29T07:06:41.562Z,70.50
2023-06-29T07:09:11.067Z,70.17
2023-06-29T07:11:41.042Z,69.77
2023-06-29T07:14:08.482Z,69.21
2023-06-29T07:16:36.004Z,69.03
2023-06-29T07:21:41.036Z,69.12
2023-06-29T07:24:10.634Z,68.92
2023-06-29T07:26:45.042Z,69.15
2023-06-29T07:29:12.760Z,69.07
2023-06-29T07:31:41.361Z,68.90
2023-06-29T07:34:09.207Z,67.99
2023-06-29T07:36:38.326Z,67.54
2023-06-29T07:39:10.605Z,67.69
2023-06-29T07:41:38.874Z,67.36
2023-06-29T07:44:06.886Z,66.98
2023-06-29T07:46:36.772Z,67.29
2023-06-29T07:49:05.433Z,67.13
2023-06-29T07:51:56.397Z,67.52
2023-06-29T07:54:24.643Z,67.10
2023-06-29T08:00:46.524Z,66.52
2023-06-29T08:03:14.565Z,65.99
2023-06-29T08:08:14.213Z,65.92
2023-06-29T08:10:42.689Z,65.63
2023-06-29T08:13:10.717Z,65.79
2023-06-29T08:15:38.245Z,65.18
2023-06-29T08:18:05.724Z,65.06
2023-06-29T08:20:33.002Z,65.45
2023-06-29T08:23:00.844Z,65.27
2023-06-29T08:25:29.095Z,64.82
2023-06-29T08:28:59.800Z,64.77
2023-06-29T08:32:54.270Z,64.84
2023-06-29T08:37:01.349Z,64.37
2023-06-29T08:40:56.619Z,63.54
2023-06-29T08:44:48.174Z,62.91
2023-06-29T08:48:44.070Z,63.07
2023-06-29T09:00:52.258Z,62.11
2023-06-29T09:04:49.173Z,62.15
2023-06-29T09:08:45.547Z,62.52
2023-06-29T09:12:33.333Z,62.17
2023-06-29T09:22:55.715Z,61.77
2023-06-29T09:25:33.813Z,61.69
2023-06-29T09:28:55.089Z,61.54
2023-06-29T09:32:14.689Z,61.74
2023-06-29T09:34:59.851Z,61.14
2023-06-29T09:37:31.881Z,60.81
2023-06-29T09:40:26.643Z,61.03
2023-06-29T09:43:19.857Z,61.12
2023-06-29T09:46:37.360Z,61.08
2023-06-29T09:49:11.104Z,61.22
2023-06-29T09:52:30.713Z,61.57
2023-06-29T09:55:59.310Z,61.72
2023-06-29T09:59:48.313Z,62.10
2023-06-29T10:02:56.952Z,62.05
2023-06-29T10:06:24.614Z,61.64
2023-06-29T10:10:18.913Z,61.42
2023-06-29T10:13:48.233Z,61.43
2023-06-29T10:17:23.719Z,61.25
2023-06-29T10:24:30.882Z,58.81
2023-06-29T10:27:59.801Z,59.01
2023-06-29T10:31:34.739Z,60.37
2023-06-29T10:34:25.207Z,60.77
2023-06-29T10:37:59.308Z,62.09
2023-06-29T10:41:52.015Z,61.90
2023-06-29T10:44:55.965Z,60.82
2023-06-29T10:47:45.111Z,58.65
2023-06-29T10:50:20.040Z,59.75
2023-06-29T10:52:51.878Z,59.55
2023-06-29T10:55:24.287Z,59.90
2023-06-29T10:58:22.406Z,59.46
2023-06-29T11:00:57.036Z,59.95
2023-06-29T11:03:26.435Z,61.08
2023-06-29T11:05:56.494Z,60.65
2023-06-29T11:08:26.047Z,60.36
2023-06-29T11:10:54.405Z,60.17
2023-06-29T11:13:41.560Z,60.42
2023-06-29T11:16:31.543Z,59.82
2023-06-29T11:19:02.206Z,61.06
2023-06-29T11:21:29.843Z,60.82
2023-06-29T11:24:03.804Z,60.21
2023-06-29T11:26:31.324Z,59.06
2023-06-29T11:28:58.810Z,58.49
2023-06-29T11:31:32.111Z,57.47
2023-06-29T11:34:01.872Z,58.92
2023-06-29T11:41:43.437Z,57.65
2023-06-29T11:45:31.886Z,58.16
2023-06-29T11:49:38.290Z,57.69
2023-06-29T11:53:34.455Z,58.48
2023-06-29T11:57:37.528Z,58.01
2023-06-29T12:01:31.012Z,58.62
2023-06-29T12:05:22.276Z,58.29
2023-06-29T12:09:14.489Z,58.36
2023-06-29T12:13:11.482Z,58.67
2023-06-29T12:20:56.414Z,54.37
2023-06-29T12:24:50.841Z,54.99
2023-06-29T12:28:38.945Z,54.79
2023-06-29T12:32:35.905Z,54.61
2023-06-29T12:36:28.875Z,51.16
2023-06-29T12:40:16.881Z,52.67
2023-06-29T12:51:59.380Z,51.23
2023-06-29T12:55:48.874Z,52.23
2023-06-29T13:03:40.740Z,53.80
2023-06-29T13:07:42.469Z,54.09
2023-06-29T13:11:13.932Z,52.91
2023-06-29T13:15:01.764Z,52.88
2023-06-29T13:18:51.524Z,53.30
2023-06-29T13:33:51.646Z,54.41
2023-06-29T13:37:39.761Z,54.05
2023-06-29T13:41:29.122Z,54.15
2023-06-29T13:45:39.198Z,54.05
2023-06-29T13:49:39.254Z,53.83
2023-06-29T13:57:04.405Z,54.39
2023-06-29T14:04:53.523Z,55.17
2023-06-29T14:08:41.775Z,55.59
2023-06-29T14:12:29.682Z,55.62
2023-06-29T14:16:25.125Z,55.92
2023-06-29T14:20:19.411Z,55.82
2023-06-29T14:24:25.220Z,54.56
2023-06-29T14:40:21.314Z,51.79
2023-06-29T14:52:06.699Z,50.30
2023-06-29T14:54:54.565Z,49.88
2023-06-29T14:57:24.883Z,50.08
2023-06-29T14:59:52.488Z,49.70
2023-06-29T15:02:21.183Z,50.07
2023-06-29T15:04:50.804Z,49.88
2023-06-29T15:07:18.702Z,49.13
2023-06-29T15:09:48.312Z,48.58
2023-06-29T15:12:18.088Z,48.52
2023-06-29T15:14:45.737Z,48.01
2023-06-29T15:17:13.217Z,47.92
2023-06-29T15:19:41.132Z,47.75
2023-06-29T15:22:09.963Z,47.47
2023-06-29T15:24:39.772Z,47.52
2023-06-29T15:27:38.763Z,47.44
2023-06-29T15:30:10.843Z,47.47
2023-06-29T15:32:38.226Z,47.25
2023-06-29T15:35:40.049Z,47.09
2023-06-29T15:38:07.637Z,45.98
2023-06-29T15:40:35.674Z,45.95
2023-06-29T15:43:03.133Z,45.48
2023-06-29T15:45:30.662Z,44.97
2023-06-29T15:47:58.797Z,44.63
2023-06-29T15:50:26.437Z,44.99
2023-06-29T15:52:59.501Z,45.14
2023-06-29T15:55:28.371Z,45.45
2023-06-29T15:57:55.801Z,45.23
2023-06-29T16:00:25.166Z,45.40
2023-06-29T16:02:54.690Z,45.41
2023-06-29T16:05:32.736Z,45.33
2023-06-29T16:08:02.710Z,45.62
2023-06-29T16:10:31.765Z,45.79
2023-06-29T16:12:59.572Z,45.36
2023-06-29T16:15:28.729Z,45.61
2023-06-29T16:17:58.790Z,45.83
2023-06-29T16:20:27.185Z,45.01
2023-06-29T16:23:08.625Z,44.92
2023-06-29T16:25:59.576Z,45.29
2023-06-29T16:28:47.206Z,45.61
2023-06-29T16:31:14.816Z,45.73
2023-06-29T16:33:51.532Z,46.06
2023-06-29T16:36:19.369Z,46.44
2023-06-29T16:38:47.089Z,47.02
2023-06-29T16:41:14.693Z,47.10
2023-06-29T16:43:44.467Z,47.11
2023-06-29T16:46:12.378Z,47.61
2023-06-29T16:48:40.017Z,47.74
2023-06-29T16:51:07.558Z,47.45
2023-06-29T16:53:52.483Z,47.35
2023-06-29T16:56:20.658Z,47.63
2023-06-29T16:58:48.089Z,47.66
2023-06-29T17:01:15.770Z,47.53
2023-06-29T17:03:44.702Z,47.41
2023-06-29T17:06:12.642Z,47.25
2023-06-29T17:08:41.553Z,47.78
2023-06-29T17:11:09.222Z,48.01
2023-06-29T17:13:36.654Z,48.21
2023-06-29T17:16:04.868Z,48.51
2023-06-29T17:18:32.697Z,48.45
2023-06-29T17:21:00.361Z,48.79
2023-06-29T17:23:27.770Z,49.10
2023-06-29T17:25:56.470Z,49.15
2023-06-29T17:28:24.037Z,49.44
2023-06-29T17:30:53.732Z,49.63
2023-06-29T17:33:22.457Z,49.71
2023-06-29T17:35:51.197Z,49.90
2023-06-29T17:38:18.571Z,50.09
2023-06-29T17:40:46.802Z,50.17
2023-06-29T17:43:34.686Z,50.40
2023-06-29T17:46:12.972Z,51.00
2023-06-29T17:48:40.535Z,51.52
2023-06-29T17:51:39.516Z,51.83
2023-06-29T17:54:11.028Z,51.96
2023-06-29T17:56:39.239Z,52.63
2023-06-29T17:59:46.023Z,52.99
2023-06-29T18:02:23.651Z,53.36
2023-06-29T18:04:51.557Z,53.62
2023-06-29T18:07:26.641Z,54.06
2023-06-29T18:09:56.505Z,54.51
2023-06-29T18:12:25.084Z,54.89
2023-06-29T18:14:55.229Z,55.12
2023-06-29T18:17:45.138Z,55.72
2023-06-29T18:20:17.000Z,55.98
2023-06-29T18:22:46.067Z,56.41
2023-06-29T18:25:14.288Z,56.86
2023-06-29T18:27:41.888Z,57.15
2023-06-29T18:30:10.564Z,57.17
2023-06-29T18:32:39.338Z,57.39
2023-06-29T18:35:07.555Z,57.85
2023-06-29T18:37:39.112Z,57.99
2023-06-29T18:40:09.262Z,58.06
2023-06-29T18:42:38.416Z,58.72
2023-06-29T18:45:09.078Z,58.94
2023-06-29T18:47:46.363Z,59.53
2023-06-29T18:50:14.378Z,59.84
2023-06-29T18:52:42.475Z,60.20
2023-06-29T18:55:10.380Z,60.30
2023-06-29T18:57:38.463Z,60.38
2023-06-29T19:00:10.637Z,60.76
2023-06-29T19:02:46.072Z,60.95
2023-06-29T19:05:14.226Z,61.22
2023-06-29T19:07:41.942Z,61.32
2023-06-29T19:10:12.369Z,61.69
2023-06-29T19:12:42.358Z,61.72
2023-06-29T19:15:11.408Z,61.82
2023-06-29T19:17:40.732Z,62.09
2023-06-29T19:20:09.557Z,62.86
2023-06-29T19:22:39.653Z,64.08
2023-06-29T19:25:08.743Z,63.49
2023-06-29T19:27:36.348Z,62.73
2023-06-29T19:30:06.421Z,62.05
2023-06-29T19:32:35.458Z,61.41
2023-06-29T19:35:17.145Z,61.00
2023-06-29T19:37:54.670Z,60.00
2023-06-29T19:40:22.803Z,59.75
2023-06-29T19:42:52.438Z,60.35
2023-06-29T19:45:24.373Z,60.81
2023-06-29T19:47:54.968Z,61.17
2023-06-29T19:50:25.502Z,61.88
2023-06-29T19:52:53.681Z,63.21
2023-06-29T19:55:21.371Z,64.34
2023-06-29T19:57:49.538Z,63.97
2023-06-29T20:00:20.960Z,63.46
2023-06-29T20:02:49.788Z,63.07
2023-06-29T20:05:17.451Z,62.78
2023-06-29T20:07:45.456Z,62.25
2023-06-29T20:10:13.446Z,62.07
2023-06-29T20:12:41.286Z,61.90
2023-06-29T20:15:11.985Z,61.68
2023-06-29T20:17:39.542Z,61.48
2023-06-29T20:20:07.901Z,61.24
2023-06-29T20:22:35.404Z,61.11
2023-06-29T20:25:02.993Z,61.09
2023-06-29T20:27:30.629Z,61.10
2023-06-29T20:29:58.481Z,61.23
2023-06-29T20:32:26.193Z,61.19
2023-06-29T20:34:54.133Z,61.05
2023-06-29T20:37:22.155Z,61.02
2023-06-29T20:39:49.804Z,61.08
2023-06-29T20:42:17.294Z,61.09
2023-06-29T20:44:49.596Z,61.10
2023-06-29T20:47:20.573Z,61.02
2023-06-29T20:49:48.196Z,61.09
2023-06-29T20:52:15.694Z,61.04
2023-06-29T20:54:43.186Z,61.10
2023-06-29T20:57:11.524Z,61.24
2023-06-29T20:59:38.945Z,61.22
2023-06-29T21:02:06.535Z,61.06
2023-06-29T21:04:34.497Z,60.91
2023-06-29T21:07:02.634Z,61.05
2023-06-29T21:09:29.891Z,61.04
2023-06-29T21:11:57.422Z,61.14
2023-06-29T21:14:28.023Z,61.10
2023-06-29T21:16:55.708Z,61.10
2023-06-29T21:19:23.535Z,61.19
2023-06-29T21:21:51.373Z,60.89
2023-06-29T21:24:18.947Z,60.90
2023-06-29T21:26:46.458Z,61.14
2023-06-29T21:29:33.350Z,60.99
2023-06-29T21:32:28.556Z,61.21
2023-06-29T21:35:16.239Z,61.35
2023-06-29T21:38:25.761Z,61.40
2023-06-29T21:41:15.573Z,61.37
2023-06-29T21:43:57.068Z,61.44
2023-06-29T21:47:06.319Z,61.38
2023-06-29T21:49:38.201Z,61.84
2023-06-29T21:52:07.733Z,61.60
2023-06-29T21:54:59.987Z,61.64
2023-06-29T21:57:35.541Z,61.69
2023-06-29T22:00:35.196Z,61.59
2023-06-29T22:03:37.881Z,61.78
2023-06-29T22:06:08.257Z,61.83
2023-06-29T22:08:39.281Z,61.66
2023-06-29T22:16:04.506Z,61.96
2023-06-29T22:19:52.438Z,62.18
2023-06-29T22:23:39.369Z,62.37
2023-06-29T22:27:26.341Z,62.32
2023-06-29T22:30:53.487Z,62.41
2023-06-29T22:34:03.633Z,62.33
2023-06-29T22:37:19.857Z,62.28
2023-06-29T22:41:06.954Z,62.57
2023-06-29T22:44:39.256Z,62.50
2023-06-29T22:48:18.507Z,62.86
2023-06-29T22:52:05.459Z,63.11
2023-06-29T22:55:52.464Z,63.25
2023-06-29T22:59:23.901Z,63.22
2023-06-29T23:02:33.036Z,63.18
2023-06-29T23:06:19.976Z,63.22
2023-06-29T23:08:55.620Z,63.21
2023-06-29T23:12:04.919Z,62.91
2023-06-29T23:15:31.600Z,63.32
2023-06-29T23:18:42.859Z,63.27
2023-06-29T23:22:11.495Z,63.23
2023-06-29T23:25:58.416Z,63.38
2023-06-29T23:29:45.278Z,63.18
2023-06-29T23:33:15.820Z,63.24
2023-06-29T23:36:43.034Z,63.28
2023-06-29T23:40:10.745Z,63.21
2023-06-29T23:43:27.226Z,63.25
2023-06-29T23:46:58.891Z,63.21
2023-06-29T23:50:45.901Z,63.25
2023-06-29T23:54:32.866Z,63.04
2023-06-29T23:57:59.862Z,63.55
